Time;durP1;ratioP1;P1;durP2;ratioP2;P2;SDS_P1;SDS_P2;PMS_P1;PMS_P2;Temp;Humidity;BMP_temperature;BMP_pressure;BME280_temperature;BME280_humidity;BME280_pressure;Samples;Min_cycle;Max_cycle;Signal;HPM_P1;HPM_P2
2023/03/15 00:05:20;;;;;;;;;;;;;;;3.38;78.92;100956.91;20454124;28;20382;-57
2023/03/15 00:15:46;;;;;;;;;;;;;;;3.38;79.07;100964.56;20462876;28;19930;-57
2023/03/15 00:26:07;;;;;;;;;;;;;;;3.46;79.04;100971.38;20473465;28;20300;-57
2023/03/15 00:36:30;;;;;;;;;;;;;;;3.45;79.58;100971.38;20455726;28;19947;-59
2023/03/15 00:46:52;;;;;;;;;;;;;;;3.48;79.87;100984.19;20472643;28;19926;-57
2023/03/15 00:57:13;;;;;;;;;;;;;;;3.54;79.57;101012.31;20479445;28;19922;-59
2023/03/15 01:07:35;;;;;;;;;;;;;;;3.60;79.58;101027.69;20465473;28;19926;-58
2023/03/15 01:17:56;;;;;;;;;;;;;;;3.64;79.90;101057.53;20450614;28;19979;-57
2023/03/15 01:28:17;;;;;;;;;;;;;;;3.66;79.86;101058.41;20464614;28;19922;-59
2023/03/15 01:38:42;;;;;;;;;;;;;;;3.55;80.88;101078.00;20472720;28;19926;-56
2023/03/15 01:49:11;;;;;;;;;;;;;;;3.55;82.14;101080.53;20463851;28;19977;-57
2023/03/15 01:59:37;;;;;;;;;;;;;;;3.51;83.38;101087.34;20470667;28;19926;-57
2023/03/15 02:10:02;;;;;;;;;;;;;;;3.52;83.22;101103.53;20475242;28;19922;-56
2023/03/15 02:20:26;;;;;;;;;;;;;;;3.60;83.33;101109.53;20459139;28;19923;-57
2023/03/15 02:30:48;;;;;;;;;;;;;;;3.56;84.04;101118.06;20461758;28;19973;-58
2023/03/15 02:41:10;;;;;;;;;;;;;;;3.66;84.21;101122.34;20439433;28;19978;-57
2023/03/15 02:51:32;;;;;;;;;;;;;;;3.69;84.60;101145.38;20442815;28;19957;-58
2023/03/15 03:01:53;;;;;;;;;;;;;;;3.69;84.70;101155.63;20462698;28;19954;-59
2023/03/15 03:12:14;;;;;;;;;;;;;;;3.71;85.25;101179.50;20450243;28;19926;-58
2023/03/15 03:22:36;;;;;;;;;;;;;;;3.76;84.62;101200.84;20448237;28;19922;-58
2023/03/15 03:32:58;;;;;;;;;;;;;;;3.76;84.93;101234.09;20440871;28;19926;-56
2023/03/15 03:43:19;;;;;;;;;;;;;;;3.66;86.15;101233.19;20449848;28;19965;-56
2023/03/15 03:53:40;;;;;;;;;;;;;;;3.60;84.85;101260.47;20470906;28;19945;-59
2023/03/15 04:04:02;;;;;;;;;;;;;;;3.51;85.74;101278.31;20476670;28;20349;-57
2023/03/15 04:14:24;;;;;;;;;;;;;;;3.44;85.41;101303.03;20449790;28;19926;-58
2023/03/15 04:24:49;;;;;;;;;;;;;;;3.34;85.21;101316.59;20466625;28;19930;-58
2023/03/15 04:35:10;;;;;;;;;;;;;;;3.21;85.91;101344.59;20463407;28;19922;-57
2023/03/15 04:45:32;;;;;;;;;;;;;;;3.06;86.09;101343.63;20449061;28;19985;-57
2023/03/15 04:55:53;;;;;;;;;;;;;;;2.98;87.04;101347.81;20477849;28;19923;-58
2023/03/15 05:06:15;;;;;;;;;;;;;;;2.95;86.75;101363.13;20459650;28;19989;-56
2023/03/15 05:16:36;;;;;;;;;;;;;;;2.86;86.34;101372.41;20457798;28;19926;-57
2023/03/15 05:26:57;;;;;;;;;;;;;;;2.72;86.96;101390.16;20455557;28;19993;-56
2023/03/15 05:37:20;;;;;;;;;;;;;;;2.77;86.60;101416.59;20423882;28;1090287;-56
2023/03/15 05:47:42;;;;;;;;;;;;;;;2.80;85.55;101444.72;20463877;28;20323;-56
2023/03/15 05:58:03;;;;;;;;;;;;;;;2.69;85.73;101456.53;20444993;28;20321;-57
2023/03/15 06:08:25;;;;;;;;;;;;;;;2.71;86.17;101475.28;20464740;28;19981;-57
2023/03/15 06:18:47;;;;;;;;;;;;;;;2.78;85.32;101471.94;20461445;28;20441;-56
2023/03/15 06:29:08;;;;;;;;;;;;;;;2.75;85.84;101494.91;20468426;28;20358;-57
2023/03/15 06:39:33;;;;;;;;;;;;;;;2.70;84.84;101524.66;20458254;28;20354;-56
2023/03/15 06:49:54;;;;;;;;;;;;;;;2.69;84.48;101545.94;20458040;28;19931;-56
2023/03/15 07:00:17;;;;;;;;;;;;;;;2.81;84.89;101563.13;20455685;28;19962;-58
2023/03/15 07:10:38;;;;;;;;;;;;;;;2.91;82.94;101580.31;20461637;28;19922;-57
2023/03/15 07:21:01;;;;;;;;;;;;;;;3.06;82.67;101589.00;20477252;28;19986;-57
2023/03/15 07:31:22;;;;;;;;;;;;;;;3.27;80.35;101598.66;20469504;28;20057;-58
2023/03/15 07:41:44;;;;;;;;;;;;;;;3.50;79.00;101619.38;20468305;28;20274;-57
2023/03/15 07:52:05;;;;;;;;;;;;;;;3.71;78.48;101617.91;20471217;28;20317;-58
2023/03/15 08:02:27;;;;;;;;;;;;;;;4.01;77.28;101625.03;20476899;28;19970;-56
2023/03/15 08:12:51;;;;;;;;;;;;;;;4.37;75.32;101630.47;20471543;28;19930;-57
2023/03/15 08:23:15;;;;;;;;;;;;;;;4.51;74.87;101654.50;20466554;28;20445;-58
2023/03/15 08:33:36;;;;;;;;;;;;;;;4.74;74.62;101677.75;20470453;28;19953;-57
2023/03/15 08:43:58;;;;;;;;;;;;;;;4.94;74.09;101687.25;20464881;28;19926;-59
2023/03/15 08:54:20;;;;;;;;;;;;;;;5.13;73.69;101707.91;20447523;28;19954;-58
2023/03/15 09:04:41;;;;;;;;;;;;;;;5.27;73.47;101724.25;20472141;28;19922;-58
2023/03/15 09:15:03;;;;;;;;;;;;;;;5.50;72.86;101722.66;20447627;28;19931;-58
2023/03/15 09:25:28;;;;;;;;;;;;;;;5.74;72.02;101720.19;20463305;28;20330;-56
2023/03/15 09:35:50;;;;;;;;;;;;;;;6.10;70.46;101738.31;20462842;28;19926;-58
2023/03/15 09:46:26;;;;;;;;;;;;;;;6.33;68.71;101764.09;20456702;28;19930;-58
2023/03/15 09:57:17;;;;;;;;;;;;;;;4.33;79.73;101864.41;20453385;28;19922;-56
2023/03/15 10:07:40;;;;;;;;;;;;;;;3.02;85.89;101893.97;20456347;28;20252;-59
2023/03/15 10:18:13;;;;;;;;;;;;;;;2.81;87.44;101893.59;20454832;28;19926;-58
2023/03/15 10:28:36;;;;;;;;;;;;;;;2.90;87.77;101870.78;20455010;28;20267;-58
2023/03/15 10:38:57;;;;;;;;;;;;;;;3.08;87.43;101845.53;20458999;28;20375;-58
2023/03/15 10:49:19;;;;;;;;;;;;;;;3.46;86.37;101860.63;20443071;28;20014;-57
2023/03/15 10:59:57;;;;;;;;;;;;;;;3.69;84.86;101923.25;20460945;28;20009;-57
2023/03/15 11:10:24;;;;;;;;;;;;;;;3.59;87.27;101952.09;20458608;28;19923;-57
2023/03/15 11:20:45;;;;;;;;;;;;;;;3.70;86.63;101945.44;20458905;28;20410;-56
2023/03/15 11:31:07;;;;;;;;;;;;;;;3.93;87.19;101952.63;20464089;28;19937;-58
2023/03/15 11:41:41;;;;;;;;;;;;;;;4.10;85.16;101968.25;20432141;28;19929;-58
2023/03/15 11:52:03;;;;;;;;;;;;;;;4.20;85.89;101988.00;20450126;28;19954;-58
2023/03/15 12:02:25;;;;;;;;;;;;;;;4.13;87.87;101972.53;20449252;28;20001;-58
2023/03/15 12:12:55;;;;;;;;;;;;;;;4.28;86.17;101971.06;20463948;28;20222;-58
2023/03/15 12:23:16;;;;;;;;;;;;;;;4.37;86.70;101913.97;20461833;28;19931;-58
2023/03/15 12:33:46;;;;;;;;;;;;;;;4.55;85.63;101915.06;20466240;28;20346;-57
2023/03/15 12:44:26;;;;;;;;;;;;;;;4.73;84.11;101916.94;20463149;28;19927;-56
2023/03/15 12:54:50;;;;;;;;;;;;;;;5.06;82.66;101923.31;20480171;28;19978;-57
2023/03/15 13:05:15;;;;;;;;;;;;;;;5.37;80.10;101905.63;20463131;28;20526;-56
2023/03/15 13:15:42;;;;;;;;;;;;;;;5.52;81.27;101903.19;20474024;28;19973;-57
2023/03/15 13:26:18;;;;;;;;;;;;;;;5.91;80.63;101888.97;20471088;28;19926;-56
2023/03/15 13:36:41;;;;;;;;;;;;;;;6.28;77.73;101895.13;20469781;28;19922;-57
2023/03/15 13:47:06;;;;;;;;;;;;;;;6.43;77.30;101904.66;20477255;28;19922;-56
2023/03/15 13:57:30;;;;;;;;;;;;;;;6.62;73.32;101912.44;20466620;28;19930;-57
2023/03/15 14:07:58;;;;;;;;;;;;;;;6.77;72.61;101927.03;20452566;28;19929;-59
2023/03/15 14:18:24;;;;;;;;;;;;;;;7.02;72.62;101916.81;20452227;28;20410;-58
2023/03/15 14:28:50;;;;;;;;;;;;;;;7.24;71.72;101920.28;20456437;28;19922;-56
2023/03/15 14:39:22;;;;;;;;;;;;;;;7.45;69.25;101920.31;20478495;28;19926;-58
2023/03/15 14:49:44;;;;;;;;;;;;;;;7.55;68.98;101906.56;20471311;28;19926;-56
2023/03/15 15:00:09;;;;;;;;;;;;;;;7.88;69.52;101915.97;20447379;28;19923;-57
2023/03/15 15:10:31;;;;;;;;;;;;;;;8.27;64.73;101915.06;20464437;28;19922;-56
2023/03/15 15:20:54;;;;;;;;;;;;;;;8.69;62.41;101926.06;20438088;28;19923;-56
2023/03/15 15:31:17;;;;;;;;;;;;;;;9.12;61.93;101917.22;20440508;28;19926;-56
2023/03/15 15:41:39;;;;;;;;;;;;;;;9.39;62.26;101907.56;20469527;28;19923;-57
2023/03/15 15:52:00;;;;;;;;;;;;;;;9.63;60.73;101909.94;20471942;28;19977;-56
2023/03/15 16:02:22;;;;;;;;;;;;;;;9.94;61.29;101912.22;20470854;28;20000;-57
2023/03/15 16:12:44;;;;;;;;;;;;;;;9.84;58.68;101925.25;20470923;28;19922;-59
2023/03/15 16:23:06;;;;;;;;;;;;;;;9.61;51.47;101917.72;20474009;28;19926;-57
2023/03/15 16:33:27;;;;;;;;;;;;;;;9.30;59.30;101941.22;20462144;28;19926;-57
2023/03/15 16:43:48;;;;;;;;;;;;;;;8.90;59.13;101946.59;20468158;28;20350;-58
2023/03/15 16:54:11;;;;;;;;;;;;;;;8.61;58.33;101953.63;20479961;28;20011;-56
2023/03/15 17:04:44;;;;;;;;;;;;;;;8.35;63.05;101968.31;20470476;28;20044;-56
2023/03/15 17:15:06;;;;;;;;;;;;;;;8.01;61.80;101984.69;20457271;28;19969;-56
2023/03/15 17:25:28;;;;;;;;;;;;;;;7.75;68.12;102001.84;20462125;28;19930;-56
2023/03/15 17:35:53;;;;;;;;;;;;;;;7.30;70.06;102006.94;20478588;28;19978;-56
2023/03/15 17:46:19;;;;;;;;;;;;;;;6.98;70.99;102009.41;20459297;28;19927;-56
2023/03/15 17:56:40;;;;;;;;;;;;;;;6.68;71.48;102007.59;20464467;28;19941;-56
2023/03/15 18:07:01;;;;;;;;;;;;;;;6.43;72.73;102022.88;20461307;28;19988;-56
2023/03/15 18:17:23;;;;;;;;;;;;;;;6.22;73.89;102028.75;20460257;28;19983;-56
2023/03/15 18:27:44;;;;;;;;;;;;;;;6.00;74.43;102039.72;20457371;28;20021;-58
2023/03/15 18:38:06;;;;;;;;;;;;;;;5.78;74.40;102060.88;20464137;28;20004;-57
2023/03/15 18:48:27;;;;;;;;;;;;;;;5.61;74.81;102065.84;20473657;28;19922;-58
2023/03/15 18:59:01;;;;;;;;;;;;;;;5.57;75.73;102070.91;20457876;28;20294;-56
2023/03/15 19:09:22;;;;;;;;;;;;;;;5.56;74.54;102079.47;20456103;28;19922;-57
2023/03/15 19:19:43;;;;;;;;;;;;;;;5.41;74.38;102097.28;20461750;28;19949;-58
2023/03/15 19:30:06;;;;;;;;;;;;;;;5.25;75.88;102093.69;20467418;28;19922;-56
2023/03/15 19:40:29;;;;;;;;;;;;;;;5.08;75.98;102101.16;20461507;28;20066;-57
2023/03/15 19:50:50;;;;;;;;;;;;;;;4.90;75.72;102098.38;20482068;28;19931;-56
2023/03/15 20:01:12;;;;;;;;;;;;;;;4.74;75.71;102096.41;20470863;28;20001;-58
2023/03/15 20:11:33;;;;;;;;;;;;;;;4.60;76.30;102115.88;20475288;28;19922;-57
2023/03/15 20:21:56;;;;;;;;;;;;;;;4.53;76.85;102119.19;20454808;28;19923;-58
2023/03/15 20:32:18;;;;;;;;;;;;;;;4.47;76.60;102121.63;20458047;28;19922;-56
2023/03/15 20:42:40;;;;;;;;;;;;;;;4.41;76.17;102115.56;20464554;28;20024;-56
2023/03/15 20:53:02;;;;;;;;;;;;;;;4.28;76.70;102111.97;20461193;28;20021;-56
2023/03/15 21:03:25;;;;;;;;;;;;;;;4.21;75.18;102116.94;20461786;28;19923;-57
2023/03/15 21:13:46;;;;;;;;;;;;;;;4.16;75.70;102119.41;20464867;28;19974;-57
2023/03/15 21:24:08;;;;;;;;;;;;;;;4.06;77.09;102125.22;20475801;28;19927;-57
2023/03/15 21:34:30;;;;;;;;;;;;;;;3.95;76.44;102124.19;20459260;28;19938;-57
2023/03/15 21:44:52;;;;;;;;;;;;;;;3.84;77.34;102138.50;20474607;28;19926;-57
2023/03/15 21:55:14;;;;;;;;;;;;;;;3.69;77.19;102138.19;20470126;28;19951;-56
2023/03/15 22:05:35;;;;;;;;;;;;;;;3.60;77.17;102132.91;20458680;28;20287;-57
2023/03/15 22:15:57;;;;;;;;;;;;;;;3.51;77.61;102130.16;20463665;28;19931;-58
2023/03/15 22:26:19;;;;;;;;;;;;;;;3.46;76.49;102134.34;20467559;28;19934;-57
2023/03/15 22:36:41;;;;;;;;;;;;;;;3.37;77.27;102113.69;20461297;28;19937;-56
2023/03/15 22:47:03;;;;;;;;;;;;;;;3.33;76.83;102129.81;20457833;28;19930;-57
2023/03/15 22:57:24;;;;;;;;;;;;;;;3.25;76.52;102128.78;20457381;28;19926;-58
2023/03/15 23:07:46;;;;;;;;;;;;;;;3.21;76.85;102129.53;20453683;28;19923;-57
2023/03/15 23:18:08;;;;;;;;;;;;;;;3.15;76.89;102132.84;20474343;28;19977;-57
2023/03/15 23:28:30;;;;;;;;;;;;;;;3.14;76.52;102133.69;20458037;28;19923;-58
2023/03/15 23:38:52;;;;;;;;;;;;;;;3.20;77.03;102144.03;20460661;28;19923;-58
2023/03/15 23:49:13;;;;;;;;;;;;;;;3.19;75.90;102133.78;20455801;28;20359;-58
2023/03/15 23:59:35;;;;;;;;;;;;;;;3.24;76.45;102132.19;20464438;28;19930;-56
